Time;durP1;ratioP1;P1;durP2;ratioP2;P2;SDS_P1;SDS_P2;PMS_P1;PMS_P2;Temp;Humidity;BMP_temperature;BMP_pressure;BME280_temperature;BME280_humidity;BME280_pressure;Samples;Min_cycle;Max_cycle;Signal;HPM_P1;HPM_P2
2022/04/15 00:01:22;;;;;;;;;;;14.80;99.90;;;;;;5103007;28;19932;-90
2022/04/15 00:03:50;;;;;;;;;;;12.50;99.90;;;;;;5102811;28;20007;-86
2022/04/15 00:06:19;;;;;;;;;;;12.70;99.90;;;;;;5103066;28;19987;-87
2022/04/15 00:08:46;;;;;;;;;;;12.50;99.90;;;;;;5101545;28;19924;-86
2022/04/15 00:11:13;;;;;;;;;;;12.70;99.90;;;;;;5101980;28;20002;-85
2022/04/15 00:13:45;;;;;;;;;;;12.40;99.90;;;;;;5101875;28;19924;-89
2022/04/15 00:16:14;;;;;;;;;;;12.60;99.90;;;;;;5102514;28;19928;-87
2022/04/15 00:18:44;;;;;;;;;;;12.60;99.90;;;;;;5101891;28;19924;-90
2022/04/15 00:21:11;;;;;;;;;;;12.40;99.90;;;;;;5099674;28;20262;-89
2022/04/15 00:23:44;;;;;;;;;;;12.40;99.90;;;;;;5100749;28;20378;-89
2022/04/15 00:26:13;;;;;;;;;;;12.40;99.90;;;;;;5097833;28;19969;-89
2022/04/15 00:28:41;;;;;;;;;;;12.40;99.90;;;;;;5100918;28;19924;-89
2022/04/15 00:31:09;;;;;;;;;;;12.40;99.90;;;;;;5104818;28;19924;-86
2022/04/15 00:33:38;;;;;;;;;;;12.40;99.90;;;;;;5106277;28;20650;-88
2022/04/15 00:36:05;;;;;;;;;;;12.40;99.90;;;;;;5106051;28;19931;-85
2022/04/15 00:38:34;;;;;;;;;;;13.30;99.90;;;;;;5105485;28;19936;-85
2022/04/15 00:41:07;;;;;;;;;;;12.30;99.90;;;;;;5103431;28;20361;-89
2022/04/15 00:43:38;;;;;;;;;;;12.30;99.90;;;;;;5101780;28;20302;-88
2022/04/15 00:46:07;;;;;;;;;;;12.90;99.90;;;;;;5102100;28;19924;-87
2022/04/15 00:48:36;;;;;;;;;;;12.30;99.90;;;;;;5102925;28;19924;-91
2022/04/15 00:51:04;;;;;;;;;;;12.20;99.90;;;;;;5106034;28;19966;-87
2022/04/15 00:53:33;;;;;;;;;;;12.20;99.90;;;;;;5106049;28;19928;-88
2022/04/15 00:56:01;;;;;;;;;;;12.20;99.90;;;;;;5106099;28;19924;-86
2022/04/15 00:58:28;;;;;;;;;;;12.20;99.90;;;;;;5106057;28;19924;-89
2022/04/15 01:00:56;;;;;;;;;;;12.20;99.90;;;;;;5106261;28;19924;-84
2022/04/15 01:03:23;;;;;;;;;;;12.10;99.90;;;;;;5104564;28;19991;-88
2022/04/15 01:05:55;;;;;;;;;;;11.40;99.90;;;;;;5105685;28;19924;-87
2022/04/15 01:08:27;;;;;;;;;;;12.00;99.90;;;;;;5105545;28;20431;-87
2022/04/15 01:10:56;;;;;;;;;;;12.00;99.90;;;;;;5103622;28;19928;-89
2022/04/15 01:13:24;;;;;;;;;;;12.00;99.90;;;;;;5103133;28;19932;-89
2022/04/15 01:15:53;;;;;;;;;;;11.90;99.90;;;;;;5103225;28;19924;-87
2022/04/15 01:18:21;;;;;;;;;;;11.90;99.90;;;;;;5103869;28;19924;-90
2022/04/15 01:20:52;;;;;;;;;;;12.00;99.90;;;;;;5103320;28;19924;-89
2022/04/15 01:23:20;;;;;;;;;;;11.70;99.90;;;;;;5102983;28;19924;-87
2022/04/15 01:25:49;;;;;;;;;;;11.70;99.90;;;;;;5102795;28;19924;-87
2022/04/15 01:28:19;;;;;;;;;;;11.60;99.90;;;;;;5103560;28;19931;-87
2022/04/15 01:30:46;;;;;;;;;;;11.60;99.90;;;;;;5103626;28;20388;-86
2022/04/15 01:33:14;;;;;;;;;;;11.50;99.90;;;;;;5103038;28;20005;-88
2022/04/15 01:35:42;;;;;;;;;;;11.50;99.90;;;;;;5103403;28;19924;-86
2022/04/15 01:38:17;;;;;;;;;;;11.50;99.90;;;;;;5103354;28;20350;-89
2022/04/15 01:40:48;;;;;;;;;;;11.50;99.90;;;;;;5103599;28;19999;-89
2022/04/15 01:43:25;;;;;;;;;;;11.50;99.90;;;;;;5103928;28;19924;-88
2022/04/15 01:46:03;;;;;;;;;;;11.40;99.90;;;;;;5104276;28;19946;-88
2022/04/15 01:48:31;;;;;;;;;;;10.80;99.90;;;;;;5106626;28;20381;-86
2022/04/15 01:53:47;;;;;;;;;;;11.50;99.90;;;;;;5104655;28;19931;-87
2022/04/15 01:56:16;;;;;;;;;;;11.40;99.90;;;;;;5072475;28;19974;-86
2022/04/15 01:58:43;;;;;;;;;;;10.70;99.90;;;;;;5106446;28;19934;-86
2022/04/15 02:01:14;;;;;;;;;;;11.40;99.90;;;;;;5106948;28;19924;-87
2022/04/15 02:03:42;;;;;;;;;;;10.80;99.90;;;;;;5106877;28;19986;-85
2022/04/15 02:06:16;;;;;;;;;;;11.50;99.90;;;;;;5106586;28;19946;-88
2022/04/15 02:08:43;;;;;;;;;;;11.50;99.90;;;;;;5106384;28;20361;-88
2022/04/15 02:11:28;;;;;;;;;;;11.90;99.90;;;;;;5106749;28;19931;-88
2022/04/15 02:16:58;;;;;;;;;;;11.50;99.90;;;;;;5106889;28;19930;-88
2022/04/15 02:19:28;;;;;;;;;;;11.50;99.90;;;;;;5107274;28;19924;-85
2022/04/15 02:22:13;;;;;;;;;;;11.50;99.90;;;;;;5088196;28;19924;-86
2022/04/15 02:24:41;;;;;;;;;;;11.50;99.90;;;;;;5106202;28;19924;-87
2022/04/15 02:27:11;;;;;;;;;;;11.90;99.90;;;;;;5107437;28;19978;-85
2022/04/15 02:30:07;;;;;;;;;;;11.50;99.90;;;;;;5108182;28;19924;-85
2022/04/15 02:32:35;;;;;;;;;;;11.50;99.90;;;;;;5108388;28;20015;-85
2022/04/15 02:35:03;;;;;;;;;;;11.40;99.90;;;;;;5107658;28;19924;-83
2022/04/15 02:37:30;;;;;;;;;;;11.40;99.90;;;;;;5089349;28;19924;-87
2022/04/15 02:39:57;;;;;;;;;;;11.30;99.90;;;;;;5106669;28;19931;-87
2022/04/15 02:42:28;;;;;;;;;;;10.60;99.90;;;;;;5105351;28;19928;-87
2022/04/15 02:45:02;;;;;;;;;;;11.00;99.90;;;;;;5103555;28;19924;-87
2022/04/15 02:47:32;;;;;;;;;;;10.80;99.90;;;;;;5106805;28;19924;-88
2022/04/15 02:50:09;;;;;;;;;;;10.70;99.90;;;;;;5106899;28;19946;-86
2022/04/15 02:52:47;;;;;;;;;;;10.70;99.90;;;;;;5106822;28;19924;-87
2022/04/15 02:55:18;;;;;;;;;;;10.60;99.90;;;;;;5105508;28;20302;-88
2022/04/15 02:57:52;;;;;;;;;;;10.50;99.90;;;;;;5104369;28;19924;-88
2022/04/15 03:00:25;;;;;;;;;;;10.10;99.90;;;;;;5105054;28;19924;-86
2022/04/15 03:02:52;;;;;;;;;;;10.40;99.90;;;;;;5105021;28;19924;-89
2022/04/15 03:05:24;;;;;;;;;;;10.70;99.90;;;;;;5105193;28;19924;-86
2022/04/15 03:08:02;;;;;;;;;;;10.40;99.90;;;;;;5087647;28;19983;-86
2022/04/15 03:10:31;;;;;;;;;;;10.40;99.90;;;;;;5099666;28;19924;-86
2022/04/15 03:12:59;;;;;;;;;;;10.10;99.90;;;;;;5084569;28;19931;-88
2022/04/15 03:15:30;;;;;;;;;;;10.60;99.90;;;;;;5085294;28;19924;-86
2022/04/15 03:17:57;;;;;;;;;;;10.40;99.90;;;;;;5085114;28;20317;-87
2022/04/15 03:20:28;;;;;;;;;;;10.60;99.90;;;;;;5085336;28;19935;-86
2022/04/15 03:22:55;;;;;;;;;;;10.40;99.90;;;;;;5085304;28;19950;-88
2022/04/15 03:25:23;;;;;;;;;;;10.40;99.90;;;;;;5066974;28;19931;-86
2022/04/15 03:27:50;;;;;;;;;;;10.40;99.90;;;;;;5083362;28;19924;-85
2022/04/15 03:30:18;;;;;;;;;;;10.50;99.90;;;;;;5083731;28;19924;-87
2022/04/15 03:32:50;;;;;;;;;;;10.50;99.90;;;;;;5085134;28;19924;-85
2022/04/15 03:35:20;;;;;;;;;;;10.50;99.90;;;;;;5085800;28;19924;-84
2022/04/15 03:37:49;;;;;;;;;;;10.60;99.90;;;;;;5085059;28;19926;-84
2022/04/15 03:40:19;;;;;;;;;;;10.70;99.90;;;;;;5065744;28;19932;-86
2022/04/15 03:42:48;;;;;;;;;;;10.70;99.90;;;;;;5083727;28;20289;-86
2022/04/15 03:45:22;;;;;;;;;;;10.70;99.90;;;;;;5085009;28;19931;-85
2022/04/15 03:47:54;;;;;;;;;;;10.80;99.90;;;;;;5084742;28;19991;-87
2022/04/15 03:50:24;;;;;;;;;;;10.80;99.90;;;;;;5067248;28;19928;-86
2022/04/15 03:52:52;;;;;;;;;;;11.00;99.90;;;;;;5085301;28;19954;-86
2022/04/15 03:55:20;;;;;;;;;;;10.90;99.90;;;;;;5084757;28;19925;-86
2022/04/15 03:57:50;;;;;;;;;;;10.90;99.90;;;;;;5085449;28;19925;-87
2022/04/15 04:00:18;;;;;;;;;;;11.00;99.90;;;;;;5066971;28;19931;-85
2022/04/15 04:02:46;;;;;;;;;;;10.90;99.90;;;;;;5084577;28;19925;-86
2022/04/15 04:05:16;;;;;;;;;;;10.60;99.90;;;;;;5085080;28;19963;-86
2022/04/15 04:07:43;;;;;;;;;;;10.90;99.90;;;;;;5085573;28;19924;-86
2022/04/15 04:10:12;;;;;;;;;;;10.80;99.90;;;;;;5088653;28;19946;-85
2022/04/15 04:13:02;;;;;;;;;;;10.80;99.90;;;;;;5105088;28;19932;-87
2022/04/15 04:15:31;;;;;;;;;;;10.70;99.90;;;;;;5112662;22;19924;-87
2022/04/15 04:17:58;;;;;;;;;;;11.00;99.90;;;;;;5123159;28;19924;-89
2022/04/15 04:20:29;;;;;;;;;;;11.10;99.90;;;;;;5123297;28;19924;-87
2022/04/15 04:22:56;;;;;;;;;;;10.60;99.90;;;;;;5124626;28;20391;-85
2022/04/15 04:28:08;;;;;;;;;;;10.60;99.90;;;;;;5130096;28;19971;-84
2022/04/15 04:30:46;;;;;;;;;;;10.50;99.90;;;;;;5129780;28;19931;-84
2022/04/15 04:33:15;;;;;;;;;;;9.80;99.90;;;;;;5128971;28;19924;-85
2022/04/15 04:35:49;;;;;;;;;;;11.10;99.90;;;;;;5108268;28;19924;-88
2022/04/15 04:38:16;;;;;;;;;;;10.60;99.90;;;;;;5107790;28;19928;-88
2022/04/15 04:40:48;;;;;;;;;;;10.40;99.90;;;;;;5126455;28;19923;-89
2022/04/15 04:43:27;;;;;;;;;;;10.40;99.90;;;;;;5109288;28;20381;-86
2022/04/15 04:46:06;;;;;;;;;;;10.50;99.90;;;;;;5128314;28;19924;-88
2022/04/15 04:48:35;;;;;;;;;;;10.30;99.90;;;;;;5126262;28;19923;-89
2022/04/15 04:51:09;;;;;;;;;;;10.30;99.90;;;;;;5127166;28;19969;-84
2022/04/15 04:53:37;;;;;;;;;;;10.30;99.90;;;;;;5126337;28;20357;-85
2022/04/15 04:56:07;;;;;;;;;;;10.60;99.90;;;;;;5125221;28;19924;-87
2022/04/15 04:58:35;;;;;;;;;;;10.20;99.90;;;;;;5125583;28;19923;-87
2022/04/15 05:01:02;;;;;;;;;;;10.50;99.90;;;;;;5125077;28;19924;-85
2022/04/15 05:03:30;;;;;;;;;;;10.40;99.90;;;;;;5124856;28;19923;-89
2022/04/15 05:06:04;;;;;;;;;;;10.20;99.90;;;;;;5126133;28;19980;-89
2022/04/15 05:08:33;;;;;;;;;;;10.20;99.90;;;;;;5125450;28;19924;-88
2022/04/15 05:11:00;;;;;;;;;;;10.30;99.90;;;;;;5126295;28;19927;-89
2022/04/15 05:13:31;;;;;;;;;;;10.20;99.90;;;;;;5127262;28;20285;-85
2022/04/15 05:16:00;;;;;;;;;;;10.20;99.90;;;;;;5129183;28;19923;-85
2022/04/15 05:18:32;;;;;;;;;;;10.40;99.90;;;;;;5128608;28;19928;-88
2022/04/15 05:21:01;;;;;;;;;;;10.60;99.90;;;;;;5109261;28;19924;-85
2022/04/15 05:23:28;;;;;;;;;;;10.60;99.90;;;;;;5127250;28;19977;-85
2022/04/15 05:25:59;;;;;;;;;;;10.20;99.90;;;;;;5127574;28;19946;-85
2022/04/15 05:28:27;;;;;;;;;;;10.20;99.90;;;;;;5127538;28;20293;-89
2022/04/15 05:31:03;;;;;;;;;;;10.30;99.90;;;;;;5127562;28;19924;-87
2022/04/15 05:33:31;;;;;;;;;;;10.30;99.90;;;;;;5127534;28;19931;-87
2022/04/15 05:35:58;;;;;;;;;;;10.30;99.90;;;;;;5127306;28;19924;-85
2022/04/15 05:38:25;;;;;;;;;;;10.30;99.90;;;;;;5127660;28;20395;-86
2022/04/15 05:40:53;;;;;;;;;;;10.30;99.90;;;;;;5110202;28;20029;-85
2022/04/15 05:43:21;;;;;;;;;;;10.40;99.90;;;;;;5128130;28;19953;-85
2022/04/15 05:45:51;;;;;;;;;;;10.40;99.90;;;;;;5128405;28;19932;-85
2022/04/15 05:48:17;;;;;;;;;;;10.40;99.90;;;;;;5128730;28;19931;-86
2022/04/15 05:50:44;;;;;;;;;;;10.50;99.90;;;;;;5128813;28;19928;-85
2022/04/15 05:53:13;;;;;;;;;;;10.60;99.90;;;;;;5128908;28;19923;-85
2022/04/15 05:55:42;;;;;;;;;;;10.60;99.90;;;;;;5127621;28;19924;-85
2022/04/15 05:58:10;;;;;;;;;;;10.50;99.90;;;;;;5128151;28;19924;-84
2022/04/15 06:00:40;;;;;;;;;;;10.60;99.90;;;;;;5128238;28;19928;-83
2022/04/15 06:03:15;;;;;;;;;;;10.60;99.90;;;;;;5128166;28;19927;-84
2022/04/15 06:05:57;;;;;;;;;;;10.70;99.90;;;;;;5128142;28;19931;-84
2022/04/15 06:08:24;;;;;;;;;;;10.90;99.90;;;;;;5127990;28;19931;-84
2022/04/15 06:10:57;;;;;;;;;;;11.10;99.90;;;;;;5128261;28;19928;-85
2022/04/15 06:13:25;;;;;;;;;;;11.40;99.90;;;;;;5128234;28;19970;-85
2022/04/15 06:15:55;;;;;;;;;;;11.50;99.90;;;;;;5127966;28;19955;-85
2022/04/15 06:18:22;;;;;;;;;;;11.60;99.90;;;;;;5128211;28;19926;-85
2022/04/15 06:20:50;;;;;;;;;;;11.60;99.90;;;;;;5128455;28;19945;-84
2022/04/15 06:23:18;;;;;;;;;;;11.90;99.90;;;;;;5128457;28;20366;-84
2022/04/15 06:25:46;;;;;;;;;;;11.60;99.90;;;;;;5129928;28;19923;-84
2022/04/15 06:28:16;;;;;;;;;;;11.50;99.90;;;;;;5128909;28;19969;-84
2022/04/15 06:30:45;;;;;;;;;;;11.50;99.90;;;;;;5128761;28;19924;-85
2022/04/15 06:33:21;;;;;;;;;;;11.30;99.90;;;;;;5128351;28;19923;-85
2022/04/15 06:35:54;;;;;;;;;;;11.70;99.90;;;;;;5128398;28;19930;-85
2022/04/15 06:38:23;;;;;;;;;;;11.80;99.90;;;;;;5111848;28;19923;-84
2022/04/15 06:40:50;;;;;;;;;;;11.70;99.90;;;;;;5128827;28;19924;-84
2022/04/15 06:45:58;;;;;;;;;;;11.90;99.90;;;;;;5127181;28;20014;-85
2022/04/15 06:48:31;;;;;;;;;;;12.20;99.90;;;;;;5127784;28;19931;-85
2022/04/15 06:50:58;;;;;;;;;;;12.30;99.90;;;;;;5128284;28;19924;-86
2022/04/15 06:53:26;;;;;;;;;;;12.50;99.90;;;;;;5128110;28;19924;-85
2022/04/15 06:55:56;;;;;;;;;;;12.20;99.90;;;;;;5135120;22;20362;-89
2022/04/15 06:58:32;;;;;;;;;;;12.30;99.90;;;;;;5086655;28;19924;-84
2022/04/15 07:00:59;;;;;;;;;;;14.00;99.90;;;;;;5086922;28;19935;-84
2022/04/15 07:03:31;;;;;;;;;;;12.10;99.90;;;;;;5086486;28;19924;-85
2022/04/15 07:05:58;;;;;;;;;;;12.40;99.90;;;;;;5086496;28;20019;-86
2022/04/15 07:08:30;;;;;;;;;;;12.10;99.90;;;;;;5087151;28;19924;-84
2022/04/15 07:11:02;;;;;;;;;;;12.10;99.90;;;;;;5086868;28;19928;-85
2022/04/15 07:13:35;;;;;;;;;;;12.30;99.90;;;;;;5069842;28;19964;-84
2022/04/15 07:16:02;;;;;;;;;;;12.30;99.90;;;;;;5086533;28;20297;-85
2022/04/15 07:18:33;;;;;;;;;;;12.40;99.90;;;;;;5086719;28;19924;-85
2022/04/15 07:21:09;;;;;;;;;;;12.50;99.90;;;;;;5086441;28;20401;-86
2022/04/15 07:23:36;;;;;;;;;;;12.80;99.90;;;;;;5085864;28;19924;-86
2022/04/15 07:26:06;;;;;;;;;;;12.60;99.90;;;;;;5085474;28;19925;-87
2022/04/15 07:28:34;;;;;;;;;;;12.70;99.90;;;;;;5085027;28;19924;-86
2022/04/15 07:31:08;;;;;;;;;;;13.20;99.90;;;;;;5085379;28;19924;-86
2022/04/15 07:33:37;;;;;;;;;;;12.50;99.90;;;;;;5084185;28;19924;-86
2022/04/15 07:36:42;;;;;;;;;;;13.10;99.90;;;;;;5085475;28;19978;-87
2022/04/15 07:38:55;;;;;;;;;;;13.10;99.90;;;;;;5085084;28;19998;-86
2022/04/15 07:41:22;;;;;;;;;;;13.20;99.90;;;;;;5085608;28;19972;-85
2022/04/15 07:43:49;;;;;;;;;;;12.50;99.90;;;;;;5085219;28;19982;-86
2022/04/15 07:46:29;;;;;;;;;;;13.80;99.90;;;;;;5085390;28;20020;-88
2022/04/15 07:48:59;;;;;;;;;;;13.60;99.90;;;;;;5084596;28;19928;-85
2022/04/15 07:51:30;;;;;;;;;;;14.00;99.90;;;;;;5083622;28;19928;-86
2022/04/15 07:53:58;;;;;;;;;;;15.90;99.90;;;;;;5084432;28;19955;-84
2022/04/15 07:56:26;;;;;;;;;;;14.30;99.90;;;;;;5084866;28;19978;-85
2022/04/15 07:58:54;;;;;;;;;;;14.20;99.90;;;;;;5086965;28;19931;-85
2022/04/15 08:01:22;;;;;;;;;;;14.40;99.90;;;;;;5087564;28;19947;-86
2022/04/15 08:03:52;;;;;;;;;;;14.00;99.90;;;;;;5087858;28;19936;-88
2022/04/15 08:06:22;;;;;;;;;;;14.60;99.90;;;;;;5087041;28;19978;-87
2022/04/15 08:08:49;;;;;;;;;;;14.90;99.90;;;;;;5087719;28;20024;-88
2022/04/15 08:11:18;;;;;;;;;;;13.80;99.90;;;;;;5087195;28;20194;-86
2022/04/15 08:13:48;;;;;;;;;;;14.50;99.90;;;;;;5087514;28;19947;-89
2022/04/15 08:16:15;;;;;;;;;;;14.80;99.90;;;;;;5087736;28;19924;-88
2022/04/15 08:18:43;;;;;;;;;;;13.80;99.90;;;;;;5090317;28;20359;-85
2022/04/15 08:21:12;;;;;;;;;;;15.00;99.90;;;;;;5091968;28;19925;-85
2022/04/15 08:23:46;;;;;;;;;;;14.70;99.90;;;;;;5090565;28;19924;-85
2022/04/15 08:26:13;;;;;;;;;;;14.20;99.90;;;;;;5089760;28;19924;-84
2022/04/15 08:28:40;;;;;;;;;;;14.50;99.90;;;;;;5070498;28;20298;-86
2022/04/15 08:31:08;;;;;;;;;;;14.60;99.90;;;;;;5087911;28;19928;-87
2022/04/15 08:33:35;;;;;;;;;;;14.50;99.90;;;;;;5069792;28;19931;-86
2022/04/15 08:36:04;;;;;;;;;;;15.00;99.90;;;;;;5088008;28;19955;-86
2022/04/15 08:38:32;;;;;;;;;;;15.10;99.90;;;;;;5087674;28;19932;-85
2022/04/15 08:41:06;;;;;;;;;;;14.70;99.90;;;;;;5087389;28;19925;-86
2022/04/15 08:43:33;;;;;;;;;;;14.70;99.90;;;;;;5087284;28;19967;-87
2022/04/15 08:46:05;;;;;;;;;;;15.00;99.90;;;;;;5086832;28;19924;-86
2022/04/15 08:48:37;;;;;;;;;;;15.30;99.90;;;;;;5086334;28;19932;-88
2022/04/15 08:51:04;;;;;;;;;;;15.40;99.90;;;;;;5085532;28;19924;-88
2022/04/15 08:53:34;;;;;;;;;;;15.50;99.90;;;;;;5067109;28;19936;-89
2022/04/15 08:56:04;;;;;;;;;;;16.00;99.90;;;;;;5084750;28;20390;-87
2022/04/15 08:58:35;;;;;;;;;;;15.90;99.90;;;;;;5087091;28;20433;-86
2022/04/15 09:01:02;;;;;;;;;;;16.00;99.90;;;;;;5087654;28;19925;-88
2022/04/15 09:03:29;;;;;;;;;;;15.80;99.90;;;;;;5087020;28;19925;-86
2022/04/15 09:05:58;;;;;;;;;;;16.60;99.90;;;;;;5085477;28;19931;-89
2022/04/15 09:08:27;;;;;;;;;;;14.80;99.90;;;;;;5085387;28;19925;-89
2022/04/15 09:10:56;;;;;;;;;;;16.20;99.90;;;;;;5084249;28;19971;-89
2022/04/15 09:13:28;;;;;;;;;;;16.50;99.90;;;;;;5084076;28;19925;-88
2022/04/15 09:15:55;;;;;;;;;;;14.40;99.90;;;;;;5083586;28;19924;-86
2022/04/15 09:18:32;;;;;;;;;;;14.20;99.90;;;;;;5083984;28;19931;-88
2022/04/15 09:21:16;;;;;;;;;;;16.60;99.90;;;;;;5066457;28;19924;-90
2022/04/15 09:23:45;;;;;;;;;;;17.20;99.90;;;;;;5082317;28;19931;-88
2022/04/15 09:26:13;;;;;;;;;;;17.10;99.90;;;;;;5082231;28;19932;-88
2022/04/15 09:28:41;;;;;;;;;;;16.90;99.90;;;;;;5082699;28;20286;-89
2022/04/15 09:31:13;;;;;;;;;;;17.10;99.90;;;;;;5083755;28;19924;-90
2022/04/15 09:33:49;;;;;;;;;;;17.30;99.90;;;;;;5082059;28;19925;-86
2022/04/15 09:36:22;;;;;;;;;;;17.70;99.90;;;;;;5083364;28;19928;-88
2022/04/15 09:38:50;;;;;;;;;;;17.60;99.90;;;;;;5082319;28;20268;-89
2022/04/15 09:41:21;;;;;;;;;;;17.80;99.90;;;;;;5083427;28;19925;-90
2022/04/15 09:43:51;;;;;;;;;;;17.30;99.90;;;;;;5083504;28;19924;-87
2022/04/15 09:46:18;;;;;;;;;;;17.20;99.90;;;;;;5082977;28;20364;-89
2022/04/15 09:48:58;;;;;;;;;;;17.20;99.90;;;;;;5082038;28;19924;-87
2022/04/15 09:51:25;;;;;;;;;;;17.60;99.90;;;;;;5081243;28;19978;-90
2022/04/15 09:53:55;;;;;;;;;;;17.50;99.90;;;;;;5080410;28;20401;-88
2022/04/15 09:56:23;;;;;;;;;;;18.20;99.90;;;;;;5081405;28;19924;-88
2022/04/15 09:58:54;;;;;;;;;;;17.90;99.90;;;;;;5080907;28;19924;-89
2022/04/15 10:01:23;;;;;;;;;;;17.60;99.90;;;;;;5082049;28;19950;-90
2022/04/15 10:03:51;;;;;;;;;;;17.70;99.90;;;;;;5081173;28;19931;-91
2022/04/15 10:06:20;;;;;;;;;;;17.70;99.90;;;;;;5080773;28;19977;-91
2022/04/15 10:08:47;;;;;;;;;;;17.50;99.90;;;;;;5080339;28;19924;-90
2022/04/15 10:11:15;;;;;;;;;;;18.10;99.90;;;;;;5079878;28;19924;-90
2022/04/15 10:13:45;;;;;;;;;;;18.10;99.90;;;;;;5082233;28;19925;-86
2022/04/15 10:16:16;;;;;;;;;;;18.10;99.90;;;;;;5084708;28;19928;-86
2022/04/15 10:18:47;;;;;;;;;;;18.10;99.90;;;;;;5080469;28;19991;-86
2022/04/15 10:21:14;;;;;;;;;;;18.10;99.90;;;;;;5066731;28;19932;-87
2022/04/15 10:23:40;;;;;;;;;;;18.00;99.90;;;;;;5060413;28;19940;-87
2022/04/15 10:26:08;;;;;;;;;;;17.70;99.90;;;;;;5061083;28;19979;-88
2022/04/15 10:28:42;;;;;;;;;;;17.40;99.90;;;;;;5059627;28;19924;-88
2022/04/15 10:31:11;;;;;;;;;;;18.10;99.90;;;;;;5056839;28;20303;-91
2022/04/15 10:33:40;;;;;;;;;;;17.60;99.90;;;;;;5059033;28;19928;-88
2022/04/15 10:36:15;;;;;;;;;;;17.80;99.90;;;;;;5057728;28;19970;-88
2022/04/15 10:39:01;;;;;;;;;;;18.00;99.90;;;;;;5056716;28;19994;-87
2022/04/15 10:41:27;;;;;;;;;;;16.60;99.90;;;;;;5057099;28;19933;-89
2022/04/15 10:43:58;;;;;;;;;;;18.30;99.90;;;;;;5056729;28;19979;-88
2022/04/15 10:46:29;;;;;;;;;;;19.20;99.90;;;;;;5057211;28;20003;-89
2022/04/15 10:48:58;;;;;;;;;;;18.40;99.90;;;;;;5056199;28;19974;-88
2022/04/15 10:51:26;;;;;;;;;;;18.40;99.90;;;;;;5056829;28;19925;-91
2022/04/15 10:54:21;;;;;;;;;;;18.20;99.90;;;;;;5057522;28;19994;-87
2022/04/15 10:57:01;;;;;;;;;;;18.00;99.90;;;;;;5056189;28;19971;-89
2022/04/15 11:02:24;;;;;;;;;;;18.30;99.90;;;;;;5058486;28;19935;-87
2022/04/15 11:05:00;;;;;;;;;;;18.90;99.90;;;;;;5056308;28;20387;-89
2022/04/15 11:07:30;;;;;;;;;;;18.90;99.90;;;;;;5056144;28;19932;-89
2022/04/15 11:09:58;;;;;;;;;;;18.80;99.90;;;;;;5056601;28;19928;-90
2022/04/15 11:12:42;;;;;;;;;;;19.30;99.90;;;;;;5076281;28;19925;-90
2022/04/15 11:15:11;;;;;;;;;;;19.10;99.90;;;;;;5076520;28;19978;-87
2022/04/15 11:17:42;;;;;;;;;;;19.10;99.90;;;;;;5078494;28;20193;-87
2022/04/15 11:20:11;;;;;;;;;;;16.70;99.90;;;;;;5078471;28;19934;-87
2022/04/15 11:22:40;;;;;;;;;;;16.80;99.90;;;;;;5079035;28;19928;-87
2022/04/15 11:25:11;;;;;;;;;;;19.00;99.90;;;;;;5078063;28;20011;-89
2022/04/15 11:27:43;;;;;;;;;;;22.70;99.90;;;;;;5078630;28;20027;-87
2022/04/15 11:30:19;;;;;;;;;;;19.80;99.90;;;;;;5078043;28;19931;-90
2022/04/15 11:32:46;;;;;;;;;;;19.30;99.90;;;;;;5075686;28;19978;-86
2022/04/15 11:35:30;;;;;;;;;;;19.00;99.90;;;;;;5075564;28;20261;-89
2022/04/15 11:38:15;;;;;;;;;;;19.60;99.90;;;;;;5076403;28;19924;-88
2022/04/15 11:40:46;;;;;;;;;;;19.90;99.90;;;;;;5075586;28;19934;-87
2022/04/15 11:43:14;;;;;;;;;;;18.50;99.90;;;;;;5077034;28;19936;-90
2022/04/15 11:45:42;;;;;;;;;;;19.50;99.90;;;;;;5081266;28;20426;-87
2022/04/15 11:48:19;;;;;;;;;;;19.20;99.90;;;;;;5079207;28;19925;-89
2022/04/15 11:50:47;;;;;;;;;;;18.90;99.90;;;;;;5079256;28;19947;-90
2022/04/15 11:53:15;;;;;;;;;;;19.20;99.90;;;;;;5077003;28;19925;-90
2022/04/15 11:56:04;;;;;;;;;;;19.20;99.90;;;;;;5075812;28;19940;-89
2022/04/15 11:58:34;;;;;;;;;;;19.30;99.90;;;;;;5075384;28;19976;-89
2022/04/15 12:01:02;;;;;;;;;;;19.20;99.90;;;;;;5078063;28;20023;-89
2022/04/15 12:03:29;;;;;;;;;;;19.80;99.90;;;;;;5075881;28;19974;-89
2022/04/15 12:05:58;;;;;;;;;;;19.00;99.90;;;;;;5075376;28;19932;-90
2022/04/15 12:08:26;;;;;;;;;;;19.80;99.90;;;;;;5076690;28;19975;-89
2022/04/15 12:10:55;;;;;;;;;;;19.70;99.90;;;;;;5082726;28;19932;-87
2022/04/15 12:13:22;;;;;;;;;;;19.50;99.90;;;;;;5087974;28;20023;-84
2022/04/15 12:15:50;;;;;;;;;;;19.80;99.90;;;;;;5087077;28;19936;-85
2022/04/15 12:18:17;;;;;;;;;;;19.80;99.90;;;;;;5086680;28;19925;-88
2022/04/15 12:20:47;;;;;;;;;;;19.00;99.90;;;;;;5080945;28;20367;-85
2022/04/15 12:23:15;;;;;;;;;;;19.90;99.90;;;;;;5076723;28;20336;-90
2022/04/15 12:26:10;;;;;;;;;;;19.50;99.90;;;;;;5077237;28;20058;-89
2022/04/15 12:31:31;;;;;;;;;;;19.40;99.90;;;;;;5076671;28;20404;-90
2022/04/15 12:34:02;;;;;;;;;;;19.30;99.90;;;;;;5075727;28;20116;-90
2022/04/15 12:36:39;;;;;;;;;;;18.80;99.90;;;;;;5078097;28;19931;-88
2022/04/15 12:39:06;;;;;;;;;;;19.50;99.90;;;;;;5074957;28;19982;-90
2022/04/15 12:41:42;;;;;;;;;;;19.70;99.90;;;;;;5075840;28;20369;-89
2022/04/15 12:44:12;;;;;;;;;;;19.20;99.90;;;;;;5079320;28;19926;-88
2022/04/15 12:46:43;;;;;;;;;;;19.30;99.90;;;;;;5080910;28;19982;-89
2022/04/15 12:49:21;;;;;;;;;;;19.40;99.90;;;;;;5084340;28;19978;-87
2022/04/15 12:51:52;;;;;;;;;;;19.80;99.90;;;;;;5086665;28;19925;-90
2022/04/15 12:54:18;;;;;;;;;;;19.60;99.90;;;;;;5086770;28;19924;-88
2022/04/15 12:57:00;;;;;;;;;;;20.10;99.90;;;;;;5086450;28;19925;-86
2022/04/15 12:59:33;;;;;;;;;;;20.10;99.90;;;;;;5082729;28;19948;-91
2022/04/15 13:01:59;;;;;;;;;;;20.20;99.90;;;;;;5082766;28;19924;-88
2022/04/15 13:04:26;;;;;;;;;;;19.90;99.90;;;;;;5083248;28;19924;-88
2022/04/15 13:06:56;;;;;;;;;;;20.80;99.90;;;;;;5086003;28;19928;-87
2022/04/15 13:09:23;;;;;;;;;;;20.10;99.90;;;;;;5082528;28;19924;-90
2022/04/15 13:11:50;;;;;;;;;;;19.70;99.90;;;;;;5083163;28;19925;-90
2022/04/15 13:14:20;;;;;;;;;;;20.00;99.90;;;;;;5082830;28;20371;-88
2022/04/15 13:16:49;;;;;;;;;;;21.50;99.90;;;;;;5080693;28;19931;-86
2022/04/15 13:19:17;;;;;;;;;;;20.20;99.90;;;;;;5080171;28;20378;-88
2022/04/15 13:21:44;;;;;;;;;;;20.20;99.90;;;;;;5079766;28;19931;-87
2022/04/15 13:24:10;;;;;;;;;;;20.10;99.90;;;;;;5079302;28;19932;-88
2022/04/15 13:26:37;;;;;;;;;;;19.90;99.90;;;;;;5079760;28;19924;-87
2022/04/15 13:29:05;;;;;;;;;;;20.10;99.90;;;;;;5081340;28;20278;-87
2022/04/15 13:31:35;;;;;;;;;;;19.60;99.90;;;;;;5078063;28;19974;-88
2022/04/15 13:34:02;;;;;;;;;;;19.60;99.90;;;;;;5076799;28;19935;-87
2022/04/15 13:36:30;;;;;;;;;;;19.60;99.90;;;;;;5076058;28;19970;-87
2022/04/15 13:38:57;;;;;;;;;;;19.60;99.90;;;;;;5075749;28;19924;-87
2022/04/15 13:41:26;;;;;;;;;;;19.70;99.90;;;;;;5076108;28;19925;-88
2022/04/15 13:43:54;;;;;;;;;;;20.00;99.90;;;;;;5077683;28;19931;-86
2022/04/15 13:46:22;;;;;;;;;;;19.90;99.90;;;;;;5079312;28;20011;-87
2022/04/15 13:48:50;;;;;;;;;;;19.80;99.90;;;;;;5077264;28;20294;-89
2022/04/15 13:51:19;;;;;;;;;;;19.90;99.90;;;;;;5077032;28;19924;-88
2022/04/15 13:56:37;;;;;;;;;;;20.10;99.90;;;;;;5079509;28;20017;-89
2022/04/15 13:59:04;;;;;;;;;;;20.00;99.90;;;;;;5078044;28;19924;-88
2022/04/15 14:01:31;;;;;;;;;;;20.00;99.90;;;;;;5077270;28;19925;-87
2022/04/15 14:04:01;;;;;;;;;;;20.10;99.90;;;;;;5078194;28;19924;-86
2022/04/15 14:06:28;;;;;;;;;;;20.40;99.80;;;;;;5085022;28;19924;-85
2022/04/15 14:08:54;;;;;;;;;;;20.70;99.60;;;;;;5088109;28;19970;-85
2022/04/15 14:11:22;;;;;;;;;;;20.50;99.70;;;;;;5091679;28;20391;-85
2022/04/15 14:13:49;;;;;;;;;;;20.30;99.90;;;;;;5086935;28;19955;-86
2022/04/15 14:16:16;;;;;;;;;;;20.10;99.90;;;;;;5078945;28;19978;-87
2022/04/15 14:18:43;;;;;;;;;;;19.90;99.90;;;;;;5078025;28;19947;-89
2022/04/15 14:21:12;;;;;;;;;;;20.00;99.90;;;;;;5079488;28;20343;-89
2022/04/15 14:23:39;;;;;;;;;;;20.00;99.90;;;;;;5077837;28;19924;-88
2022/04/15 14:26:05;;;;;;;;;;;20.00;99.90;;;;;;5077126;28;19924;-87
2022/04/15 14:28:32;;;;;;;;;;;19.90;99.90;;;;;;5077345;28;20401;-88
2022/04/15 14:31:00;;;;;;;;;;;19.80;99.90;;;;;;5077191;28;19924;-88
2022/04/15 14:33:26;;;;;;;;;;;19.80;99.90;;;;;;5077677;28;20339;-88
2022/04/15 14:35:53;;;;;;;;;;;19.80;99.90;;;;;;5076427;28;19951;-89
2022/04/15 14:38:21;;;;;;;;;;;19.80;99.90;;;;;;5075958;28;19947;-89
2022/04/15 14:40:48;;;;;;;;;;;19.80;99.90;;;;;;5077071;28;19925;-88
2022/04/15 14:43:15;;;;;;;;;;;19.60;99.90;;;;;;5077168;28;19940;-88
2022/04/15 14:45:42;;;;;;;;;;;19.70;99.90;;;;;;5076613;28;20302;-88
2022/04/15 14:48:09;;;;;;;;;;;19.50;99.90;;;;;;5076510;28;19978;-89
2022/04/15 14:50:38;;;;;;;;;;;19.40;99.90;;;;;;5076287;28;19955;-88
2022/04/15 14:53:05;;;;;;;;;;;19.20;99.90;;;;;;5075584;28;19967;-88